createdAt,value
2022-08-21T00:00:17.759Z,2.03
2022-08-21T00:03:07.098Z,2.00
2022-08-21T00:05:39.158Z,1.83
2022-08-21T00:08:06.684Z,2.10
2022-08-21T00:10:34.001Z,2.00
2022-08-21T00:13:04.279Z,1.92
2022-08-21T00:15:34.248Z,1.90
2022-08-21T00:18:01.623Z,2.00
2022-08-21T00:20:29.274Z,2.10
2022-08-21T00:22:57.555Z,2.33
2022-08-21T00:25:26.162Z,1.90
2022-08-21T00:27:53.950Z,2.33
2022-08-21T00:30:22.929Z,1.92
2022-08-21T00:32:52.184Z,1.73
2022-08-21T00:35:22.659Z,1.77
2022-08-21T00:37:50.109Z,1.70
2022-08-21T00:40:21.280Z,1.98
2022-08-21T00:42:53.477Z,2.15
2022-08-21T00:45:24.829Z,1.90
2022-08-21T00:47:53.022Z,1.88
2022-08-21T00:50:22.165Z,2.08
2022-08-21T00:52:53.394Z,2.00
2022-08-21T00:55:23.470Z,1.60
2022-08-21T00:57:54.909Z,2.25
2022-08-21T01:00:29.779Z,1.83
2022-08-21T01:02:58.337Z,1.80
2022-08-21T01:05:25.739Z,2.00
2022-08-21T01:07:53.134Z,2.00
2022-08-21T01:10:24.039Z,1.88
2022-08-21T01:12:54.504Z,1.70
2022-08-21T01:15:24.180Z,1.90
2022-08-21T01:17:51.489Z,1.90
2022-08-21T01:20:18.826Z,1.98
2022-08-21T01:22:46.230Z,1.80
2022-08-21T01:25:16.163Z,1.90
2022-08-21T01:27:43.729Z,1.80
2022-08-21T01:30:13.629Z,1.80
2022-08-21T01:32:40.944Z,2.17
2022-08-21T01:35:08.649Z,2.00
2022-08-21T01:37:37.040Z,2.13
2022-08-21T01:40:07.397Z,1.92
2022-08-21T01:42:34.684Z,2.15
2022-08-21T01:45:01.905Z,2.10
2022-08-21T01:47:29.015Z,1.92
2022-08-21T01:49:56.332Z,1.88
2022-08-21T01:52:23.515Z,1.73
2022-08-21T01:54:54.949Z,1.90
2022-08-21T01:57:23.010Z,1.90
2022-08-21T01:59:53.869Z,1.90
2022-08-21T02:02:21.226Z,1.83
2022-08-21T02:04:48.301Z,2.40
2022-08-21T02:07:16.186Z,1.90
2022-08-21T02:09:43.947Z,1.80
2022-08-21T02:12:12.414Z,1.65
2022-08-21T02:14:39.917Z,1.70
2022-08-21T02:17:09.790Z,1.80
2022-08-21T02:19:40.334Z,1.92
2022-08-21T02:22:11.733Z,2.00
2022-08-21T02:24:53.863Z,1.80
2022-08-21T02:27:25.984Z,1.85
2022-08-21T02:29:56.259Z,1.70
2022-08-21T02:32:23.340Z,1.65
2022-08-21T02:34:50.975Z,1.80
2022-08-21T02:37:18.135Z,1.70
2022-08-21T02:39:45.215Z,1.48
2022-08-21T02:42:12.320Z,1.70
2022-08-21T02:44:39.465Z,1.60
2022-08-21T02:47:06.502Z,1.50
2022-08-21T02:49:33.526Z,1.70
2022-08-21T02:52:00.595Z,1.38
2022-08-21T02:54:27.696Z,1.75
2022-08-21T02:56:54.915Z,1.55
2022-08-21T02:59:22.052Z,1.50
2022-08-21T03:01:49.181Z,1.55
2022-08-21T03:04:16.326Z,1.50
2022-08-21T03:06:43.960Z,1.60
2022-08-21T03:09:11.100Z,1.70
2022-08-21T03:11:38.162Z,1.50
2022-08-21T03:14:06.278Z,1.45
2022-08-21T03:16:35.218Z,1.65
2022-08-21T03:19:03.283Z,1.30
2022-08-21T03:21:30.315Z,1.80
2022-08-21T03:23:57.455Z,1.25
2022-08-21T03:26:26.209Z,1.63
2022-08-21T03:28:54.960Z,1.60
2022-08-21T03:31:22.685Z,1.50
2022-08-21T03:33:49.710Z,1.50
2022-08-21T03:36:17.180Z,1.48
2022-08-21T03:38:44.286Z,1.88
2022-08-21T03:41:11.295Z,1.75
2022-08-21T03:43:40.840Z,1.50
2022-08-21T03:46:08.435Z,1.88
2022-08-21T03:48:37.163Z,1.50
2022-08-21T03:51:04.815Z,1.65
2022-08-21T03:53:31.914Z,1.50
2022-08-21T03:55:59.469Z,2.47
2022-08-21T03:58:29.146Z,1.75
2022-08-21T04:00:59.800Z,1.80
2022-08-21T04:03:28.090Z,1.73
2022-08-21T04:05:55.080Z,1.80
2022-08-21T04:08:22.341Z,2.20
2022-08-21T04:10:53.452Z,1.70
2022-08-21T04:13:21.480Z,1.50
2022-08-21T04:15:49.350Z,1.45
2022-08-21T04:18:16.759Z,1.77
2022-08-21T04:20:50.318Z,1.63
2022-08-21T04:23:23.750Z,1.50
2022-08-21T04:25:53.247Z,1.52
2022-08-21T04:28:20.919Z,1.63
2022-08-21T04:30:50.020Z,1.55
2022-08-21T04:33:17.211Z,1.67
2022-08-21T04:35:44.429Z,1.30
2022-08-21T04:38:11.747Z,1.48
2022-08-21T04:40:39.101Z,1.60
2022-08-21T04:43:09.764Z,1.70
2022-08-21T04:45:40.086Z,1.58
2022-08-21T04:48:13.935Z,1.60
2022-08-21T04:50:46.510Z,1.63
2022-08-21T04:53:34.276Z,1.38
2022-08-21T04:56:32.810Z,1.60
2022-08-21T04:59:04.185Z,1.50
2022-08-21T05:01:35.651Z,1.58
2022-08-21T05:04:05.631Z,1.60
2022-08-21T05:06:36.574Z,1.48
2022-08-21T05:09:05.124Z,1.60
2022-08-21T05:11:32.617Z,1.88
2022-08-21T05:14:00.355Z,1.48
2022-08-21T05:16:36.421Z,1.67
2022-08-21T05:19:06.646Z,1.40
2022-08-21T05:21:35.263Z,1.55
2022-08-21T05:24:02.837Z,1.70
2022-08-21T05:26:30.819Z,1.52
2022-08-21T05:28:58.065Z,1.40
2022-08-21T05:31:25.517Z,1.40
2022-08-21T05:33:52.619Z,1.40
2022-08-21T05:36:23.474Z,1.40
2022-08-21T05:38:50.661Z,1.67
2022-08-21T05:41:17.769Z,1.60
2022-08-21T05:43:44.780Z,1.70
2022-08-21T05:46:12.399Z,1.55
2022-08-21T05:48:39.530Z,1.67
2022-08-21T05:51:09.824Z,1.40
2022-08-21T05:53:38.035Z,1.70
2022-08-21T05:56:06.280Z,1.50
2022-08-21T05:58:34.860Z,1.50
2022-08-21T06:01:03.502Z,1.65
2022-08-21T06:03:35.458Z,1.85
2022-08-21T06:06:03.381Z,1.45
2022-08-21T06:08:31.304Z,1.50
2022-08-21T06:11:01.240Z,1.55
2022-08-21T06:13:28.775Z,1.65
2022-08-21T06:16:11.370Z,1.30
2022-08-21T06:18:43.004Z,1.35
2022-08-21T06:21:10.566Z,1.73
2022-08-21T06:23:37.630Z,1.80
2022-08-21T06:26:06.524Z,1.40
2022-08-21T06:28:34.614Z,1.50
2022-08-21T06:31:02.508Z,1.70
2022-08-21T06:33:32.696Z,1.70
2022-08-21T06:36:00.594Z,1.67
2022-08-21T06:38:27.684Z,1.60
2022-08-21T06:40:55.915Z,1.55
2022-08-21T06:43:30.666Z,1.80
2022-08-21T06:46:08.195Z,1.70
2022-08-21T06:48:35.229Z,1.80
2022-08-21T06:51:02.313Z,1.73
2022-08-21T06:53:29.436Z,1.80
2022-08-21T06:55:56.467Z,1.60
2022-08-21T06:58:23.505Z,1.80
2022-08-21T07:00:52.556Z,1.77
2022-08-21T07:03:26.256Z,1.67
2022-08-21T07:05:54.054Z,1.80
2022-08-21T07:08:22.075Z,2.00
2022-08-21T07:10:50.114Z,1.90
2022-08-21T07:13:18.250Z,2.15
2022-08-21T07:15:45.939Z,2.03
2022-08-21T07:18:14.404Z,2.63
2022-08-21T07:20:42.340Z,2.50
2022-08-21T07:23:13.644Z,2.50
2022-08-21T07:25:40.879Z,2.55
2022-08-21T07:28:07.961Z,2.38
2022-08-21T07:30:35.275Z,3.28
2022-08-21T07:33:02.311Z,4.18
2022-08-21T07:35:29.425Z,4.82
2022-08-21T07:37:56.499Z,4.43
2022-08-21T07:40:23.808Z,4.85
2022-08-21T07:42:52.776Z,4.63
2022-08-21T07:45:22.432Z,4.82
2022-08-21T07:47:52.966Z,4.10
2022-08-21T07:50:22.471Z,3.95
2022-08-21T07:52:49.659Z,2.80
2022-08-21T07:55:20.712Z,2.78
2022-08-21T07:57:49.045Z,2.53
2022-08-21T08:00:21.965Z,2.30
2022-08-21T08:02:51.185Z,2.20
2022-08-21T08:05:21.425Z,2.45
2022-08-21T08:07:48.774Z,1.75
2022-08-21T08:10:17.219Z,1.95
2022-08-21T08:12:46.595Z,1.73
2022-08-21T08:15:18.006Z,1.88
2022-08-21T08:17:45.145Z,1.75
2022-08-21T08:20:14.529Z,1.70
2022-08-21T08:22:42.494Z,1.45
2022-08-21T08:25:11.214Z,1.67
2022-08-21T08:27:39.594Z,1.70
2022-08-21T08:30:09.089Z,1.67
2022-08-21T08:32:36.345Z,1.60
2022-08-21T08:35:03.879Z,1.50
2022-08-21T08:37:34.484Z,1.67
2022-08-21T08:40:03.542Z,1.65
2022-08-21T08:42:34.905Z,1.90
2022-08-21T08:45:11.556Z,1.67
2022-08-21T08:47:45.885Z,1.77
2022-08-21T08:50:26.545Z,1.60
2022-08-21T08:53:02.661Z,1.52
2022-08-21T08:55:37.894Z,2.00
2022-08-21T08:58:05.794Z,1.73
2022-08-21T09:00:33.136Z,1.90
2022-08-21T09:03:03.912Z,1.60
2022-08-21T09:05:57.399Z,1.55
2022-08-21T09:08:56.245Z,1.30
2022-08-21T09:11:41.641Z,1.88
2022-08-21T09:14:25.505Z,1.75
2022-08-21T09:17:00.884Z,1.70
2022-08-21T09:19:33.809Z,1.60
2022-08-21T09:22:14.908Z,1.98
2022-08-21T09:25:08.867Z,1.65
2022-08-21T09:27:37.724Z,1.88
2022-08-21T09:30:07.477Z,1.90
2022-08-21T09:32:38.212Z,1.50
2022-08-21T09:35:18.424Z,1.80
2022-08-21T09:37:55.950Z,1.70
2022-08-21T09:40:43.175Z,1.90
2022-08-21T09:43:12.976Z,1.90
2022-08-21T09:45:42.916Z,1.90
2022-08-21T09:48:21.130Z,2.05
2022-08-21T09:50:49.436Z,1.65
2022-08-21T09:53:33.743Z,1.70
2022-08-21T09:56:36.715Z,1.70
2022-08-21T09:59:19.006Z,2.10
2022-08-21T10:01:52.670Z,2.47
2022-08-21T10:04:38.224Z,2.05
2022-08-21T10:09:44.155Z,1.83
2022-08-21T10:12:14.116Z,1.58
2022-08-21T10:14:45.149Z,1.50
2022-08-21T10:17:39.204Z,1.67
2022-08-21T10:20:21.924Z,1.60
2022-08-21T10:23:24.835Z,1.60
2022-08-21T10:26:14.046Z,1.65
2022-08-21T10:28:46.801Z,1.88
2022-08-21T10:31:34.498Z,1.55
2022-08-21T10:34:30.745Z,1.65
2022-08-21T10:37:26.864Z,1.67
2022-08-21T10:40:12.091Z,1.40
2022-08-21T10:43:21.589Z,1.75
2022-08-21T10:45:59.661Z,1.58
2022-08-21T10:48:38.754Z,1.70
2022-08-21T10:51:15.415Z,1.70
2022-08-21T10:54:00.879Z,1.42
2022-08-21T10:59:27.649Z,1.63
2022-08-21T11:02:12.095Z,1.70
2022-08-21T11:04:50.211Z,1.70
2022-08-21T11:07:20.269Z,1.60
2022-08-21T11:09:49.325Z,1.50
2022-08-21T11:12:36.964Z,1.30
2022-08-21T11:15:29.171Z,1.60
2022-08-21T11:18:21.404Z,1.40
2022-08-21T11:21:04.035Z,1.30
2022-08-21T11:23:43.499Z,1.40
2022-08-21T11:26:18.539Z,1.70
2022-08-21T11:31:42.354Z,1.20
2022-08-21T11:34:38.728Z,1.60
2022-08-21T11:37:31.753Z,1.38
2022-08-21T11:40:22.102Z,1.30
2022-08-21T11:43:04.586Z,1.30
2022-08-21T11:45:46.064Z,1.40
2022-08-21T11:48:42.223Z,1.50
2022-08-21T11:51:14.809Z,1.30
2022-08-21T11:53:54.321Z,1.35
2022-08-21T11:56:55.164Z,1.20
2022-08-21T11:59:27.330Z,1.30
2022-08-21T12:01:55.579Z,1.30
2022-08-21T12:04:38.709Z,1.23
2022-08-21T12:07:16.434Z,1.30
2022-08-21T12:09:55.308Z,1.20
2022-08-21T12:12:30.679Z,1.23
2022-08-21T12:15:21.829Z,1.30
2022-08-21T12:17:59.960Z,1.30
2022-08-21T12:20:50.576Z,1.05
2022-08-21T12:23:34.694Z,1.52
2022-08-21T12:26:25.349Z,1.23
2022-08-21T12:29:11.874Z,1.30
2022-08-21T12:31:51.567Z,1.08
2022-08-21T12:34:19.715Z,1.40
2022-08-21T12:36:58.611Z,1.13
2022-08-21T12:39:30.653Z,1.35
2022-08-21T12:42:03.141Z,1.30
2022-08-21T12:45:01.978Z,1.20
2022-08-21T12:47:58.833Z,1.10
2022-08-21T12:50:53.554Z,1.15
2022-08-21T12:53:44.474Z,1.20
2022-08-21T12:56:14.954Z,1.20
2022-08-21T12:58:55.344Z,1.30
2022-08-21T13:01:28.119Z,1.00
2022-08-21T13:04:04.379Z,1.10
2022-08-21T13:06:38.983Z,1.10
2022-08-21T13:09:11.173Z,1.10
2022-08-21T13:11:40.961Z,1.10
2022-08-21T13:14:29.034Z,1.10
2022-08-21T13:16:58.225Z,1.40
2022-08-21T13:19:27.639Z,1.08
2022-08-21T13:21:54.924Z,1.02
2022-08-21T13:24:43.333Z,1.05
2022-08-21T13:27:27.660Z,1.00
2022-08-21T13:30:09.114Z,1.00
2022-08-21T13:32:40.011Z,1.10
2022-08-21T13:35:17.658Z,1.20
2022-08-21T13:37:47.684Z,1.30
2022-08-21T13:40:25.267Z,1.00
2022-08-21T13:42:52.829Z,1.23
2022-08-21T13:45:32.417Z,1.27
2022-08-21T13:48:05.992Z,1.15
2022-08-21T13:50:37.674Z,1.13
2022-08-21T13:53:08.967Z,1.20
2022-08-21T13:55:45.065Z,1.10
2022-08-21T13:58:12.796Z,1.10
2022-08-21T14:00:50.764Z,1.20
2022-08-21T14:03:42.776Z,1.15
2022-08-21T14:06:26.165Z,1.10
2022-08-21T14:09:02.654Z,1.75
2022-08-21T14:11:35.349Z,1.10
2022-08-21T14:14:09.585Z,1.10
2022-08-21T14:16:47.330Z,1.38
2022-08-21T14:19:25.304Z,1.00
2022-08-21T14:21:53.085Z,1.17
2022-08-21T14:24:29.800Z,1.20
2022-08-21T14:27:05.187Z,1.10
2022-08-21T14:29:45.749Z,1.20
2022-08-21T14:32:25.230Z,1.10
2022-08-21T14:34:55.064Z,1.40
2022-08-21T14:37:26.269Z,1.10
2022-08-21T14:39:53.518Z,1.20
2022-08-21T14:42:21.001Z,1.27
2022-08-21T14:44:49.044Z,1.15
2022-08-21T14:47:16.151Z,1.40
2022-08-21T14:49:44.024Z,1.67
2022-08-21T14:52:11.247Z,2.50
2022-08-21T14:54:38.494Z,3.22
2022-08-21T14:57:10.349Z,1.20
2022-08-21T14:59:40.006Z,1.10
2022-08-21T15:02:09.204Z,1.30
2022-08-21T15:04:36.679Z,1.00
2022-08-21T15:07:05.449Z,1.33
2022-08-21T15:09:32.693Z,1.10
2022-08-21T15:12:03.079Z,1.00
2022-08-21T15:14:32.320Z,1.40
2022-08-21T15:16:59.861Z,1.20
2022-08-21T15:19:27.355Z,1.40
2022-08-21T15:21:55.016Z,1.40
2022-08-21T15:24:22.211Z,1.20
2022-08-21T15:26:50.300Z,1.30
2022-08-21T15:29:22.546Z,1.13
2022-08-21T15:31:57.773Z,1.10
2022-08-21T15:34:28.101Z,1.13
2022-08-21T15:36:57.406Z,1.30
2022-08-21T15:39:30.137Z,1.50
2022-08-21T15:41:59.039Z,1.37
2022-08-21T15:44:28.230Z,1.08
2022-08-21T15:46:56.685Z,1.05
2022-08-21T15:49:24.386Z,1.25
2022-08-21T15:51:51.729Z,1.20
2022-08-21T15:54:20.989Z,1.30
2022-08-21T15:56:53.524Z,1.30
2022-08-21T15:59:23.394Z,1.40
2022-08-21T16:01:52.430Z,1.30
2022-08-21T16:04:27.805Z,1.30
2022-08-21T16:07:03.169Z,1.20
2022-08-21T16:09:35.785Z,1.10
2022-08-21T16:12:04.325Z,1.20
2022-08-21T16:14:32.608Z,1.00
2022-08-21T16:17:00.224Z,1.17
2022-08-21T16:19:30.009Z,1.02
2022-08-21T16:21:58.214Z,1.05
2022-08-21T16:24:27.695Z,1.30
2022-08-21T16:26:58.135Z,1.17
2022-08-21T16:29:31.455Z,1.40
2022-08-21T16:31:59.955Z,1.20
2022-08-21T16:34:28.684Z,1.20
2022-08-21T16:36:56.025Z,1.30
2022-08-21T16:39:23.438Z,1.17
2022-08-21T16:41:51.178Z,1.40
2022-08-21T16:44:21.444Z,1.40
2022-08-21T16:46:48.615Z,1.30
2022-08-21T16:49:15.814Z,1.20
2022-08-21T16:51:43.700Z,1.20
2022-08-21T16:54:14.269Z,1.20
2022-08-21T16:56:47.563Z,1.23
2022-08-21T16:59:17.568Z,1.30
2022-08-21T17:01:46.258Z,1.50
2022-08-21T17:04:13.893Z,1.20
2022-08-21T17:06:44.143Z,1.20
2022-08-21T17:09:11.520Z,1.23
2022-08-21T17:11:43.599Z,1.10
2022-08-21T17:14:22.924Z,1.30
2022-08-21T17:16:55.876Z,1.85
2022-08-21T17:19:23.629Z,2.00
2022-08-21T17:21:50.784Z,2.05
2022-08-21T17:24:18.069Z,2.10
2022-08-21T17:26:48.153Z,2.10
2022-08-21T17:29:28.030Z,2.10
2022-08-21T17:31:55.731Z,2.00
2022-08-21T17:34:23.564Z,1.92
2022-08-21T17:36:58.323Z,1.60
2022-08-21T17:39:26.519Z,1.50
2022-08-21T17:41:58.146Z,1.63
2022-08-21T17:44:26.095Z,1.90
2022-08-21T17:46:53.785Z,1.70
2022-08-21T17:49:28.424Z,2.22
2022-08-21T17:51:55.597Z,3.15
2022-08-21T17:54:25.814Z,2.33
2022-08-21T17:56:54.969Z,1.95
2022-08-21T17:59:26.424Z,1.77
2022-08-21T18:02:01.414Z,2.10
2022-08-21T18:04:31.799Z,2.05
2022-08-21T18:06:59.003Z,2.00
2022-08-21T18:09:31.453Z,1.80
2022-08-21T18:12:00.443Z,2.10
2022-08-21T18:14:35.539Z,2.10
2022-08-21T18:19:32.104Z,2.20
2022-08-21T18:22:03.890Z,2.03
2022-08-21T18:24:34.315Z,1.80
2022-08-21T18:27:02.614Z,1.70
2022-08-21T18:29:29.954Z,1.80
2022-08-21T18:32:01.175Z,2.20
2022-08-21T18:34:42.914Z,1.90
2022-08-21T18:37:10.249Z,1.73
2022-08-21T18:39:40.190Z,1.60
2022-08-21T18:42:19.052Z,2.70
2022-08-21T18:44:53.536Z,2.28
2022-08-21T18:47:26.863Z,2.13
2022-08-21T18:49:54.124Z,2.38
2022-08-21T18:52:21.355Z,1.85
2022-08-21T18:54:49.782Z,1.88
2022-08-21T18:57:18.566Z,1.90
2022-08-21T18:59:46.024Z,2.00
2022-08-21T19:02:13.271Z,1.70
2022-08-21T19:04:44.643Z,1.65
2022-08-21T19:07:13.959Z,1.75
2022-08-21T19:09:42.284Z,2.25
2022-08-21T19:12:17.144Z,1.48
2022-08-21T19:14:45.114Z,2.10
2022-08-21T19:17:18.025Z,1.67
2022-08-21T19:19:46.192Z,1.98
2022-08-21T19:22:13.365Z,1.73
2022-08-21T19:24:50.081Z,2.05
2022-08-21T19:27:18.277Z,2.20
2022-08-21T19:29:46.624Z,2.00
2022-08-21T19:32:14.769Z,2.08
2022-08-21T19:34:42.455Z,2.13
2022-08-21T19:37:16.015Z,1.70
2022-08-21T19:42:21.642Z,1.80
2022-08-21T19:47:37.530Z,1.30
2022-08-21T19:50:17.280Z,2.17
2022-08-21T19:52:51.609Z,1.70
2022-08-21T19:55:19.348Z,1.60
2022-08-21T19:57:46.977Z,1.65
2022-08-21T20:00:19.251Z,1.58
2022-08-21T20:02:48.211Z,1.58
2022-08-21T20:05:18.340Z,1.77
2022-08-21T20:07:49.816Z,1.30
2022-08-21T20:10:17.476Z,1.80
2022-08-21T20:12:48.624Z,1.60
2022-08-21T20:15:19.605Z,1.45
2022-08-21T20:17:49.213Z,1.48
2022-08-21T20:20:25.251Z,1.55
2022-08-21T20:23:15.548Z,1.48
2022-08-21T20:25:55.056Z,1.70
2022-08-21T20:28:28.488Z,2.25
2022-08-21T20:30:57.005Z,1.70
2022-08-21T20:33:25.721Z,1.85
2022-08-21T20:35:58.826Z,1.92
2022-08-21T20:38:26.091Z,1.85
2022-08-21T20:40:53.886Z,1.80
2022-08-21T20:43:23.075Z,1.80
2022-08-21T20:45:50.460Z,2.00
2022-08-21T20:48:26.780Z,1.63
2022-08-21T20:51:08.980Z,2.05
2022-08-21T20:53:53.840Z,1.70
2022-08-21T20:56:38.541Z,1.88
2022-08-21T20:59:24.496Z,1.75
2022-08-21T21:01:54.035Z,1.77
2022-08-21T21:04:59.535Z,1.60
2022-08-21T21:08:03.802Z,1.52
2022-08-21T21:10:55.840Z,2.03
2022-08-21T21:13:38.501Z,1.85
2022-08-21T21:16:41.390Z,1.73
2022-08-21T21:19:36.907Z,1.67
2022-08-21T21:22:16.056Z,1.67
2022-08-21T21:24:55.051Z,1.70
2022-08-21T21:27:52.122Z,1.60
2022-08-21T21:30:20.886Z,2.33
2022-08-21T21:32:48.665Z,1.90
2022-08-21T21:38:29.665Z,1.80
2022-08-21T21:41:26.535Z,1.83
2022-08-21T21:44:00.601Z,1.83
2022-08-21T21:47:10.500Z,1.77
2022-08-21T21:49:56.000Z,1.92
2022-08-21T21:52:29.035Z,2.22
2022-08-21T21:55:23.578Z,1.63
2022-08-21T21:58:05.896Z,1.70
2022-08-21T22:00:52.297Z,2.08
2022-08-21T22:03:49.686Z,1.70
2022-08-21T22:06:36.648Z,1.60
2022-08-21T22:09:18.244Z,1.90
2022-08-21T22:11:56.255Z,1.90
2022-08-21T22:14:35.945Z,1.90
2022-08-21T22:17:13.156Z,1.85
2022-08-21T22:19:46.695Z,1.95
2022-08-21T22:24:48.790Z,1.80
2022-08-21T22:27:20.944Z,1.80
2022-08-21T22:29:53.625Z,1.90
2022-08-21T22:32:33.275Z,1.88
2022-08-21T22:35:03.267Z,2.03
2022-08-21T22:37:49.990Z,2.20
2022-08-21T22:40:28.003Z,2.00
2022-08-21T22:43:11.515Z,1.95
2022-08-21T22:46:01.301Z,2.13
2022-08-21T22:48:37.314Z,1.60
2022-08-21T22:51:32.514Z,2.25
2022-08-21T22:54:16.554Z,2.30
2022-08-21T22:56:49.800Z,1.85
2022-08-21T22:59:32.366Z,1.95
2022-08-21T23:02:22.068Z,2.13
2022-08-21T23:04:54.835Z,2.10
2022-08-21T23:07:44.614Z,1.95
2022-08-21T23:10:32.934Z,1.70
2022-08-21T23:13:06.224Z,1.90
2022-08-21T23:16:20.304Z,1.77
2022-08-21T23:18:56.195Z,1.80
2022-08-21T23:24:19.222Z,2.00
2022-08-21T23:27:21.870Z,2.08
2022-08-21T23:30:07.278Z,1.90
2022-08-21T23:33:12.760Z,2.17
2022-08-21T23:36:19.455Z,2.25
2022-08-21T23:39:10.274Z,2.25
2022-08-21T23:41:44.770Z,1.90
2022-08-21T23:44:31.499Z,2.20
2022-08-21T23:47:32.247Z,2.17
2022-08-21T23:50:16.824Z,1.90
2022-08-21T23:53:05.033Z,2.00
2022-08-21T23:55:55.589Z,2.05
2022-08-21T23:59:03.208Z,2.00
